Time;durP1;ratioP1;P1;durP2;ratioP2;P2;SDS_P1;SDS_P2;PMS_P1;PMS_P2;Temp;Humidity;BMP_temperature;BMP_pressure;BME280_temperature;BME280_humidity;BME280_pressure;Samples;Min_cycle;Max_cycle;Signal;HPM_P1;HPM_P2
2022/08/16 00:00:06;;;;;;;17.17;12.25;;;;;;;20.84;81.30;100491.66;5036351;28;20021;-80
2022/08/16 00:02:32;;;;;;;17.10;12.13;;;;;;;20.82;81.21;100487.69;5035896;28;20384;-80
2022/08/16 00:04:57;;;;;;;17.63;12.10;;;;;;;20.73;81.73;100492.69;5035540;28;20098;-80
2022/08/16 00:07:23;;;;;;;15.68;12.10;;;;;;;20.82;80.97;100495.59;5035616;28;20025;-80
2022/08/16 00:09:48;;;;;;;16.60;12.23;;;;;;;20.77;80.85;100496.34;5034175;28;20473;-80
2022/08/16 00:12:13;;;;;;;17.40;12.15;;;;;;;20.81;81.26;100492.16;5033965;28;20080;-81
2022/08/16 00:14:39;;;;;;;17.95;12.70;;;;;;;20.77;80.74;100498.19;5034302;28;20108;-80
2022/08/16 00:17:04;;;;;;;19.27;12.70;;;;;;;20.73;80.75;100506.59;5035404;28;20029;-69
2022/08/16 00:19:33;;;;;;;17.23;12.50;;;;;;;20.78;80.75;100503.19;5032275;28;20116;-70
2022/08/16 00:21:59;;;;;;;19.90;13.43;;;;;;;20.75;80.65;100505.56;5032445;28;20464;-70
2022/08/16 00:24:27;;;;;;;19.38;13.40;;;;;;;20.66;81.33;100507.91;5033508;28;20025;-70
2022/08/16 00:26:52;;;;;;;16.40;12.95;;;;;;;20.65;81.41;100507.09;5032282;28;20025;-72
2022/08/16 00:29:18;;;;;;;16.67;13.48;;;;;;;20.74;80.81;100512.63;5033609;28;20542;-72
2022/08/16 00:31:46;;;;;;;18.92;13.82;;;;;;;20.75;80.75;100505.56;5032354;28;20060;-73
2022/08/16 00:34:11;;;;;;;16.92;13.25;;;;;;;20.76;80.99;100512.38;5033429;28;20100;-73
2022/08/16 00:36:37;;;;;;;17.60;13.05;;;;;;;20.68;80.60;100511.84;5032242;28;20035;-73
2022/08/16 00:39:03;;;;;;;18.35;13.45;;;;;;;20.60;81.60;100517.63;5032170;28;20028;-73
2022/08/16 00:41:30;;;;;;;21.08;13.50;;;;;;;20.56;81.81;100518.38;5033574;28;20104;-73
2022/08/16 00:43:57;;;;;;;19.02;12.77;;;;;;;20.62;81.26;100515.50;5032443;28;20063;-72
2022/08/16 00:46:29;;;;;;;18.27;13.15;;;;;;;20.70;81.18;100516.84;5032067;28;20040;-72
2022/08/16 00:48:54;;;;;;;20.13;13.07;;;;;;;20.70;81.18;100517.63;5033076;28;20440;-72
2022/08/16 00:51:24;;;;;;;17.88;12.70;;;;;;;20.69;81.25;100521.31;5033395;28;20032;-73
2022/08/16 00:53:50;;;;;;;16.10;12.32;;;;;;;20.64;80.92;100520.50;5031856;28;20022;-70
2022/08/16 00:56:18;;;;;;;16.25;12.98;;;;;;;20.57;81.47;100520.75;5031944;28;20032;-70
2022/08/16 00:58:46;;;;;;;19.48;12.57;;;;;;;20.68;80.28;100521.56;5031945;28;20026;-69
2022/08/16 01:01:13;;;;;;;17.40;12.38;;;;;;;20.66;80.90;100532.31;5033227;28;20045;-69
2022/08/16 01:03:42;;;;;;;14.15;11.75;;;;;;;20.53;81.14;100519.69;5033045;28;20037;-70
2022/08/16 01:06:10;;;;;;;16.70;12.63;;;;;;;20.58;81.21;100522.34;5031867;28;20030;-70
2022/08/16 01:08:36;;;;;;;16.23;11.60;;;;;;;20.59;81.12;100520.50;5033103;28;20067;-69
2022/08/16 01:11:02;;;;;;;15.57;12.02;;;;;;;20.60;80.95;100524.69;5033183;28;20423;-70
2022/08/16 01:13:30;;;;;;;16.67;11.80;;;;;;;20.53;80.92;100517.06;5033090;28;20473;-69
2022/08/16 01:15:59;;;;;;;18.23;12.10;;;;;;;20.48;81.04;100515.22;5033080;28;20100;-69
2022/08/16 01:18:32;;;;;;;18.98;12.40;;;;;;;20.55;81.03;100512.34;5033009;28;20049;-69
2022/08/16 01:21:13;;;;;;;15.20;12.40;;;;;;;20.54;80.82;100510.75;5033168;28;20079;-69
2022/08/16 01:24:02;;;;;;;13.85;11.95;;;;;;;20.63;80.47;100514.47;5031566;28;20026;-69
2022/08/16 01:26:30;;;;;;;18.77;12.88;;;;;;;20.58;80.59;100521.53;5033176;28;20073;-69
2022/08/16 01:28:59;;;;;;;18.90;13.20;;;;;;;20.59;80.63;100521.28;5032033;28;20393;-69
2022/08/16 01:31:27;;;;;;;20.33;14.07;;;;;;;20.38;81.34;100515.16;5031686;28;20021;-69
2022/08/16 01:33:53;;;;;;;19.83;14.00;;;;;;;20.37;81.55;100510.16;5032850;28;20013;-70
2022/08/16 01:36:19;;;;;;;18.98;13.90;;;;;;;20.21;82.51;100515.38;5031499;28;20720;-69
2022/08/16 01:38:47;;;;;;;19.75;14.27;;;;;;;20.23;82.66;100512.50;5031582;28;20043;-70
2022/08/16 01:41:23;;;;;;;20.27;14.63;;;;;;;20.29;82.10;100506.22;5032819;28;20033;-69
2022/08/16 01:43:50;;;;;;;18.80;14.95;;;;;;;20.25;82.47;100500.72;5031484;28;20025;-70
2022/08/16 01:46:27;;;;;;;21.33;14.60;;;;;;;20.09;83.39;100506.16;5032683;28;20021;-70
2022/08/16 01:48:56;;;;;;;23.33;14.68;;;;;;;20.03;83.63;100518.47;5031508;28;20175;-69
2022/08/16 01:51:25;;;;;;;19.02;14.48;;;;;;;19.92;83.63;100503.72;5031431;28;20087;-70
2022/08/16 01:53:50;;;;;;;18.85;14.23;;;;;;;19.78;84.81;100509.41;5032657;28;20465;-69
2022/08/16 01:56:16;;;;;;;18.27;14.32;;;;;;;19.77;85.42;100510.47;5034989;28;20032;-70
2022/08/16 01:58:41;;;;;;;19.25;14.07;;;;;;;19.81;85.14;100503.66;5036322;28;20071;-70
2022/08/16 02:01:07;;;;;;;22.70;14.95;;;;;;;19.84;85.14;100516.25;5036536;28;20112;-69
2022/08/16 02:03:32;;;;;;;18.77;14.88;;;;;;;19.78;85.30;100514.66;5034854;28;20025;-69
2022/08/16 02:05:57;;;;;;;23.35;15.40;;;;;;;19.75;85.41;100509.91;5036190;28;20380;-69
2022/08/16 02:08:25;;;;;;;22.80;15.10;;;;;;;19.86;84.87;100518.63;5035055;28;20393;-70
2022/08/16 02:10:53;;;;;;;21.48;15.40;;;;;;;19.63;86.56;100513.75;5036084;28;20097;-69
2022/08/16 02:13:19;;;;;;;22.05;15.80;;;;;;;19.66;86.59;100519.31;5034817;28;20091;-69
2022/08/16 02:15:45;;;;;;;21.70;15.73;;;;;;;19.61;85.75;100508.75;5036011;28;20025;-69
2022/08/16 02:18:11;;;;;;;22.63;15.27;;;;;;;19.66;86.02;100523.78;5036169;28;20030;-69
2022/08/16 02:20:38;;;;;;;21.42;15.65;;;;;;;19.69;85.79;100524.03;5036125;28;20076;-69
2022/08/16 02:23:04;;;;;;;20.55;15.50;;;;;;;19.68;86.02;100506.75;5035760;28;20053;-69
2022/08/16 02:25:30;;;;;;;23.48;15.85;;;;;;;19.60;86.38;100520.31;5035834;28;20060;-69
2022/08/16 02:27:55;;;;;;;20.58;15.38;;;;;;;19.62;86.22;100512.94;5035776;28;20427;-69
2022/08/16 02:30:28;;;;;;;23.65;16.35;;;;;;;19.51;86.44;100511.34;5035853;28;20028;-69
2022/08/16 02:32:53;;;;;;;21.58;15.25;;;;;;;19.60;86.48;100515.84;5035739;28;20036;-69
2022/08/16 02:35:20;;;;;;;23.17;14.55;;;;;;;19.63;86.53;100511.94;5035633;28;20108;-69
2022/08/16 02:37:46;;;;;;;20.05;14.05;;;;;;;19.71;86.69;100521.16;5035633;28;20104;-69
2022/08/16 02:40:15;;;;;;;22.58;14.93;;;;;;;19.59;86.61;100518.69;5034370;28;20060;-69
2022/08/16 02:42:41;;;;;;;21.30;14.73;;;;;;;19.55;86.79;100521.03;5034332;28;20142;-69
2022/08/16 02:45:07;;;;;;;18.02;14.90;;;;;;;19.36;87.48;100507.56;5035495;28;20051;-71
2022/08/16 02:47:32;;;;;;;21.58;14.60;;;;;;;19.46;87.49;100524.41;5035498;28;20029;-70
2022/08/16 02:49:57;;;;;;;21.70;16.20;;;;;;;19.49;87.10;100521.28;5033992;28;20057;-70
2022/08/16 02:52:23;;;;;;;20.88;15.68;;;;;;;19.45;86.90;100518.38;5034025;28;20032;-70
2022/08/16 02:54:48;;;;;;;21.33;16.60;;;;;;;19.35;87.50;100524.31;5034022;28;20021;-70
2022/08/16 02:57:14;;;;;;;22.33;16.58;;;;;;;19.20;87.94;100513.72;5033935;28;20036;-69
2022/08/16 02:59:41;;;;;;;22.85;17.30;;;;;;;19.23;87.73;100515.84;5035216;28;20021;-69
2022/08/16 03:02:06;;;;;;;24.83;16.70;;;;;;;19.17;88.53;100501.94;5033892;28;20030;-69
2022/08/16 03:04:32;;;;;;;24.27;16.58;;;;;;;19.21;88.39;100511.91;5035055;28;20026;-69
2022/08/16 03:06:57;;;;;;;22.08;16.17;;;;;;;19.23;88.60;100504.59;5032803;28;20156;-70
2022/08/16 03:09:24;;;;;;;27.20;16.63;;;;;;;19.19;88.62;100504.31;5035087;28;20029;-70
2022/08/16 03:11:49;;;;;;;23.50;16.73;;;;;;;19.15;88.64;100505.81;5033676;28;20567;-70
2022/08/16 03:14:15;;;;;;;22.30;15.93;;;;;;;19.25;88.80;100508.53;5034983;28;20104;-70
2022/08/16 03:16:40;;;;;;;23.85;16.10;;;;;;;19.11;88.74;100494.28;5034106;28;20029;-72
2022/08/16 03:19:07;;;;;;;26.17;16.45;;;;;;;19.15;89.16;100501.38;5033658;28;20025;-69
2022/08/16 03:21:33;;;;;;;20.98;15.98;;;;;;;19.11;89.12;100502.94;5033577;28;20124;-69
2022/08/16 03:23:58;;;;;;;20.25;15.68;;;;;;;19.06;89.54;100499.47;5033428;28;20061;-69
2022/08/16 03:26:23;;;;;;;22.85;16.55;;;;;;;19.03;89.49;100506.00;5034702;28;20428;-69
2022/08/16 03:28:49;;;;;;;24.83;17.05;;;;;;;19.00;89.96;100493.41;5034621;28;20108;-69
2022/08/16 03:31:14;;;;;;;26.33;18.05;;;;;;;18.87;90.70;100497.25;5033387;28;20112;-70
2022/08/16 03:33:40;;;;;;;24.40;18.27;;;;;;;18.85;91.27;100501.94;5034532;28;20036;-71
2022/08/16 03:36:06;;;;;;;27.17;19.10;;;;;;;18.86;90.59;100498.25;5034543;28;20037;-69
2022/08/16 03:38:33;;;;;;;28.77;19.13;;;;;;;18.87;91.33;100504.28;5034444;28;20053;-69
2022/08/16 03:40:59;;;;;;;23.67;18.92;;;;;;;18.73;91.56;100501.28;5034321;28;20030;-69
2022/08/16 03:43:26;;;;;;;29.52;19.42;;;;;;;18.64;92.21;100511.41;5034296;28;20018;-70
2022/08/16 03:45:54;;;;;;;26.80;19.75;;;;;;;18.81;91.45;100508.69;5033096;28;20460;-70
2022/08/16 03:48:22;;;;;;;27.13;19.80;;;;;;;18.74;91.65;100508.09;5034336;28;20029;-70
2022/08/16 03:50:47;;;;;;;27.58;19.08;;;;;;;18.69;91.79;100505.41;5034254;28;20049;-69
2022/08/16 03:53:12;;;;;;;27.63;18.92;;;;;;;18.75;91.23;100493.19;5034084;28;20427;-70
2022/08/16 03:55:37;;;;;;;29.85;19.77;;;;;;;18.84;90.93;100502.94;5034135;28;20029;-71
2022/08/16 03:58:03;;;;;;;25.10;19.02;;;;;;;18.93;90.54;100501.47;5034150;28;20017;-70
2022/08/16 04:00:29;;;;;;;26.30;19.33;;;;;;;18.71;90.92;100506.75;5034109;28;20021;-69
2022/08/16 04:02:57;;;;;;;24.92;18.98;;;;;;;18.73;90.93;100511.75;5032688;28;20522;-69
2022/08/16 04:05:23;;;;;;;24.98;18.63;;;;;;;18.68;90.96;100504.63;5033894;28;20021;-70
2022/08/16 04:07:49;;;;;;;27.95;19.10;;;;;;;18.58;91.99;100514.97;5032583;28;20039;-70
2022/08/16 04:10:16;;;;;;;26.52;19.83;;;;;;;18.63;92.34;100516.84;5033818;28;20026;-70
2022/08/16 04:12:43;;;;;;;24.95;19.58;;;;;;;18.68;91.54;100514.31;5033915;28;20021;-70
2022/08/16 04:15:12;;;;;;;27.30;19.58;;;;;;;18.76;91.33;100511.28;5033996;28;20048;-69
2022/08/16 04:17:37;;;;;;;26.75;19.50;;;;;;;18.78;90.87;100521.47;5032308;28;20033;-70
2022/08/16 04:20:07;;;;;;;28.35;19.63;;;;;;;18.78;90.35;100527.50;5032346;28;20124;-70
2022/08/16 04:22:33;;;;;;;29.83;20.52;;;;;;;18.66;91.28;100521.59;5033674;28;20048;-70
2022/08/16 04:24:58;;;;;;;33.63;21.75;;;;;;;18.50;92.08;100523.28;5032323;28;20025;-71
2022/08/16 04:27:24;;;;;;;28.95;21.42;;;;;;;18.37;93.09;100531.50;5033650;28;20029;-70
2022/08/16 04:29:49;;;;;;;30.52;21.95;;;;;;;18.26;93.56;100538.44;5032306;28;20100;-69
2022/08/16 04:32:14;;;;;;;29.98;20.42;;;;;;;18.41;93.49;100541.25;5032322;28;20033;-70
2022/08/16 04:34:40;;;;;;;31.42;21.35;;;;;;;18.53;92.88;100541.09;5032484;28;20393;-70
2022/08/16 04:37:06;;;;;;;30.88;21.30;;;;;;;18.60;92.38;100538.28;5032185;28;20392;-69
2022/08/16 04:39:33;;;;;;;32.22;21.10;;;;;;;18.54;92.32;100539.28;5032219;28;20025;-70
2022/08/16 04:41:58;;;;;;;29.63;21.70;;;;;;;18.70;91.79;100541.81;5032097;28;20033;-71
2022/08/16 04:44:24;;;;;;;33.08;20.73;;;;;;;18.86;91.35;100542.75;5033335;28;20032;-69
2022/08/16 04:46:51;;;;;;;27.13;19.85;;;;;;;19.05;90.80;100545.03;5032033;28;20026;-70
2022/08/16 04:49:17;;;;;;;29.75;19.95;;;;;;;19.08;90.20;100553.19;5031975;28;20493;-69
2022/08/16 04:51:42;;;;;;;27.05;19.80;;;;;;;19.24;89.39;100555.94;5033341;28;20488;-70
2022/08/16 04:54:08;;;;;;;28.00;19.73;;;;;;;19.36;89.42;100561.78;5033201;28;20025;-69
2022/08/16 04:56:34;;;;;;;30.60;20.42;;;;;;;19.37;88.61;100561.53;5032094;28;20111;-69
2022/08/16 04:59:00;;;;;;;31.40;20.77;;;;;;;19.54;88.30;100563.25;5033222;28;20155;-70
2022/08/16 05:01:26;;;;;;;29.05;20.08;;;;;;;19.57;88.25;100560.13;5032013;28;20021;-69
2022/08/16 05:03:51;;;;;;;31.85;21.17;;;;;;;19.64;87.59;100563.31;5033133;28;20084;-69
2022/08/16 05:06:16;;;;;;;33.92;21.20;;;;;;;19.66;86.87;100558.63;5031862;28;20439;-70
2022/08/16 05:08:43;;;;;;;30.05;21.98;;;;;;;19.77;86.32;100567.38;5031972;28;20022;-70
2022/08/16 05:11:12;;;;;;;30.30;21.38;;;;;;;19.74;86.46;100566.03;5032012;28;20021;-70
2022/08/16 05:13:40;;;;;;;35.00;22.05;;;;;;;19.72;87.14;100569.94;5033447;28;20032;-69
2022/08/16 05:16:08;;;;;;;32.50;22.50;;;;;;;19.79;87.01;100570.50;5032419;28;20463;-70
2022/08/16 05:18:35;;;;;;;37.15;23.63;;;;;;;19.87;86.17;100564.78;5031964;28;20033;-70
2022/08/16 05:21:01;;;;;;;31.25;22.15;;;;;;;19.76;86.56;100571.00;5033368;28;20056;-69
2022/08/16 05:23:27;;;;;;;36.75;23.42;;;;;;;19.95;85.19;100568.78;5032110;28;20055;-70
2022/08/16 05:25:52;;;;;;;30.92;22.25;;;;;;;19.69;86.38;100557.34;5031006;28;20017;-70
2022/08/16 05:28:17;;;;;;;37.33;22.65;;;;;;;19.73;87.01;100566.28;5032687;28;20033;-70
2022/08/16 05:30:44;;;;;;;33.65;23.05;;;;;;;19.87;86.00;100570.03;5035454;28;20362;-70
2022/08/16 05:33:10;;;;;;;36.60;23.25;;;;;;;19.83;86.06;100571.59;5036137;28;20025;-69
2022/08/16 05:35:35;;;;;;;35.38;23.77;;;;;;;19.77;86.00;100577.84;5037673;28;20034;-71
2022/08/16 05:38:01;;;;;;;37.95;23.33;;;;;;;19.86;86.10;100580.78;5042792;28;20028;-69
2022/08/16 05:40:26;;;;;;;29.20;22.75;;;;;;;19.91;85.80;100586.03;5030988;28;20079;-70
2022/08/16 05:42:52;;;;;;;33.47;23.20;;;;;;;19.98;85.30;100590.03;5049835;28;20048;-72
2022/08/16 05:45:17;;;;;;;35.55;23.48;;;;;;;19.83;85.78;100584.69;5049425;28;20036;-70
2022/08/16 05:47:42;;;;;;;31.50;23.55;;;;;;;19.91;85.56;100584.22;5050398;28;20032;-74
2022/08/16 05:50:08;;;;;;;33.92;22.80;;;;;;;19.92;86.48;100585.78;5049444;28;20084;-73
2022/08/16 05:52:34;;;;;;;32.40;22.95;;;;;;;19.97;85.58;100588.47;5051534;28;20034;-71
2022/08/16 05:54:59;;;;;;;35.40;23.90;;;;;;;20.18;84.56;100580.69;5050619;28;20044;-75
2022/08/16 05:57:25;;;;;;;35.15;23.23;;;;;;;20.27;84.22;100579.94;5041264;28;20041;-70
2022/08/16 05:59:50;;;;;;;39.88;22.42;;;;;;;23.69;71.32;100579.38;5040500;28;20017;-71
2022/08/16 06:02:17;;;;;;;35.38;21.92;;;;;;;26.02;61.25;100583.44;5039016;28;20025;-70
2022/08/16 06:04:42;;;;;;;33.50;20.50;;;;;;;27.12;55.77;100582.38;5039693;28;20428;-70
2022/08/16 06:07:08;;;;;;;28.38;19.10;;;;;;;27.00;56.99;100578.41;5038882;28;20071;-70
2022/08/16 06:09:34;;;;;;;27.67;19.27;;;;;;;28.15;53.46;100583.94;5037556;28;20120;-70
2022/08/16 06:12:00;;;;;;;28.77;18.90;;;;;;;27.11;54.55;100578.94;5038422;28;20022;-71
2022/08/16 06:14:26;;;;;;;28.85;18.30;;;;;;;27.39;53.72;100573.50;5036012;28;20104;-70
2022/08/16 06:16:52;;;;;;;24.17;18.08;;;;;;;28.75;50.22;100585.13;5036081;28;20021;-71
2022/08/16 06:19:17;;;;;;;25.70;17.63;;;;;;;29.16;49.01;100581.94;5036887;28;20025;-71
2022/08/16 06:21:43;;;;;;;24.77;17.33;;;;;;;29.21;48.54;100589.75;5035275;28;20021;-70
2022/08/16 06:24:09;;;;;;;22.88;17.33;;;;;;;28.62;50.15;100586.03;5035276;28;20022;-70
2022/08/16 06:26:34;;;;;;;23.90;17.10;;;;;;;29.20;48.42;100590.06;5035279;28;20112;-70
2022/08/16 06:29:00;;;;;;;25.27;18.27;;;;;;;29.64;47.42;100591.53;5036226;28;20119;-70
2022/08/16 06:31:25;;;;;;;23.95;16.95;;;;;;;30.06;46.23;100596.94;5034567;28;20287;-70
2022/08/16 06:33:50;;;;;;;27.13;16.65;;;;;;;29.61;47.45;100604.69;5035875;28;20017;-69
2022/08/16 06:36:16;;;;;;;24.52;17.20;;;;;;;29.28;48.04;100597.25;5035806;28;20030;-70
2022/08/16 06:38:42;;;;;;;28.13;16.77;;;;;;;29.28;48.02;100596.47;5035567;28;20049;-70
2022/08/16 06:41:08;;;;;;;23.88;16.50;;;;;;;30.41;46.37;100591.41;5035633;28;20496;-70
2022/08/16 06:43:34;;;;;;;24.48;16.15;;;;;;;29.59;47.42;100589.00;5035565;28;20022;-70
2022/08/16 06:46:02;;;;;;;22.05;16.48;;;;;;;29.49;48.03;100593.91;5034156;28;20068;-70
2022/08/16 06:48:27;;;;;;;21.80;15.60;;;;;;;30.78;44.48;100596.91;5034115;28;20506;-70
2022/08/16 06:50:52;;;;;;;20.52;16.13;;;;;;;31.63;42.42;100599.03;5033984;28;20120;-69
2022/08/16 06:53:19;;;;;;;22.50;15.73;;;;;;;30.87;43.62;100597.63;5035167;28;20032;-69
2022/08/16 06:55:44;;;;;;;23.27;15.27;;;;;;;31.36;43.37;100599.69;5034051;28;20785;-70
2022/08/16 06:58:10;;;;;;;21.52;16.15;;;;;;;31.96;41.55;100584.81;5035834;28;20029;-71
2022/08/16 07:00:37;;;;;;;24.20;15.77;;;;;;;31.94;40.99;100597.72;5037585;28;20045;-70
2022/08/16 07:03:05;;;;;;;22.10;14.98;;;;;;;32.27;40.36;100594.09;5036889;28;20029;-72
2022/08/16 07:05:31;;;;;;;24.33;14.27;;;;;;;32.02;40.78;100594.13;5034177;28;20021;-70
2022/08/16 07:07:57;;;;;;;19.75;14.35;;;;;;;31.68;41.38;100600.72;5033807;28;20025;-71
2022/08/16 07:10:24;;;;;;;20.70;14.70;;;;;;;31.56;41.42;100614.06;5033771;28;20029;-68
2022/08/16 07:12:50;;;;;;;18.13;14.32;;;;;;;32.20;39.88;100602.72;5034826;28;20548;-75
2022/08/16 07:15:18;;;;;;;21.05;14.02;;;;;;;31.28;41.58;100604.00;5034990;28;20151;-74
2022/08/16 07:17:44;;;;;;;21.83;14.55;;;;;;;32.23;40.19;100610.03;5033626;28;20025;-74
2022/08/16 07:20:11;;;;;;;17.35;13.45;;;;;;;33.47;37.56;100611.84;5034832;28;20057;-75
2022/08/16 07:22:40;;;;;;;18.98;13.80;;;;;;;32.09;40.13;100609.63;5033460;28;20215;-74
2022/08/16 07:25:09;;;;;;;20.27;13.52;;;;;;;32.66;38.35;100605.94;5033416;28;20029;-74
2022/08/16 07:27:34;;;;;;;20.77;14.00;;;;;;;32.92;37.44;100610.06;5034743;28;20029;-74
2022/08/16 07:29:59;;;;;;;18.88;13.13;;;;;;;33.33;37.76;100618.78;5033211;28;20024;-74
2022/08/16 07:32:25;;;;;;;19.95;13.70;;;;;;;32.69;37.76;100618.63;5031799;28;20440;-74
2022/08/16 07:34:51;;;;;;;20.60;14.30;;;;;;;33.09;37.35;100617.81;5033271;28;20013;-74
2022/08/16 07:37:16;;;;;;;20.00;15.20;;;;;;;31.77;40.00;100627.31;5034769;28;20029;-74
2022/08/16 07:39:41;;;;;;;25.65;15.35;;;;;;;32.21;39.49;100625.63;5033038;28;20017;-74
2022/08/16 07:42:07;;;;;;;19.17;15.33;;;;;;;32.51;38.70;100615.47;5033264;28;20481;-74
2022/08/16 07:44:32;;;;;;;22.00;15.20;;;;;;;32.46;38.73;100618.38;5034210;28;20367;-74
2022/08/16 07:46:57;;;;;;;20.30;15.45;;;;;;;32.19;39.17;100622.50;5034280;28;20275;-76
2022/08/16 07:49:23;;;;;;;23.57;15.97;;;;;;;31.69;40.99;100634.31;5032789;28;20073;-73
2022/08/16 07:51:48;;;;;;;24.45;15.75;;;;;;;31.50;40.46;100636.75;5033701;28;20272;-73
2022/08/16 07:54:15;;;;;;;22.25;15.52;;;;;;;30.20;43.60;100638.56;5032759;28;20025;-73
2022/08/16 07:56:40;;;;;;;23.27;16.75;;;;;;;30.63;42.69;100642.84;5034140;28;20057;-73
2022/08/16 07:59:05;;;;;;;27.33;17.57;;;;;;;30.53;43.36;100649.38;5034131;28;20080;-74
2022/08/16 08:01:31;;;;;;;21.65;16.70;;;;;;;30.36;44.50;100642.25;5034108;28;20272;-74
2022/08/16 08:03:57;;;;;;;23.90;17.65;;;;;;;30.50;43.71;100650.00;5033930;28;20052;-72
2022/08/16 08:06:27;;;;;;;24.05;17.55;;;;;;;29.61;45.86;100647.28;5032730;28;20033;-73
2022/08/16 08:08:53;;;;;;;27.60;18.75;;;;;;;29.07;47.50;100653.00;5032542;28;20029;-73
2022/08/16 08:11:20;;;;;;;24.40;18.42;;;;;;;28.28;49.60;100657.44;5033968;28;20029;-73
2022/08/16 08:13:46;;;;;;;23.60;18.17;;;;;;;28.22;49.82;100663.19;5033777;28;20021;-74
2022/08/16 08:16:11;;;;;;;23.98;19.00;;;;;;;27.24;52.82;100664.84;5032348;28;20052;-74
2022/08/16 08:18:36;;;;;;;23.73;17.88;;;;;;;27.28;52.91;100657.88;5033761;28;20117;-72
2022/08/16 08:21:02;;;;;;;26.15;18.77;;;;;;;28.08;50.46;100663.28;5032233;28;20027;-75
2022/08/16 08:23:27;;;;;;;24.00;18.52;;;;;;;27.53;51.86;100667.06;5032325;28;20026;-74
2022/08/16 08:25:53;;;;;;;28.55;19.23;;;;;;;26.81;53.97;100664.47;5033349;28;20059;-74
2022/08/16 08:28:19;;;;;;;24.17;18.17;;;;;;;27.55;52.34;100674.72;5033348;28;20449;-74
2022/08/16 08:30:44;;;;;;;25.52;18.42;;;;;;;27.20;53.32;100677.94;5033373;28;20440;-74
2022/08/16 08:33:11;;;;;;;25.95;19.38;;;;;;;27.71;51.74;100681.25;5032115;28;20389;-74
2022/08/16 08:35:37;;;;;;;26.73;19.00;;;;;;;27.45;52.09;100692.47;5032072;28;20025;-74
2022/08/16 08:38:07;;;;;;;24.00;17.50;;;;;;;28.06;51.55;100679.53;5033523;28;20095;-74
2022/08/16 08:40:32;;;;;;;24.20;18.15;;;;;;;28.48;49.95;100676.56;5033434;28;20100;-74
2022/08/16 08:42:59;;;;;;;24.38;18.05;;;;;;;28.68;50.35;100691.91;5032110;28;20532;-74
2022/08/16 08:45:24;;;;;;;23.92;18.00;;;;;;;27.71;51.20;100694.50;5033381;28;20117;-74
2022/08/16 08:47:51;;;;;;;27.58;19.13;;;;;;;27.82;51.70;100689.72;5032153;28;20053;-74
2022/08/16 08:50:17;;;;;;;25.58;18.25;;;;;;;27.89;51.86;100688.22;5032082;28;20080;-74
2022/08/16 08:52:43;;;;;;;22.92;17.42;;;;;;;28.39;51.31;100679.16;5033233;28;20104;-73
2022/08/16 08:55:11;;;;;;;28.33;19.23;;;;;;;27.76;51.30;100689.03;5031758;28;20033;-73
2022/08/16 08:57:39;;;;;;;25.15;18.42;;;;;;;28.25;50.70;100694.44;5033216;28;20029;-73
2022/08/16 09:00:06;;;;;;;20.00;16.08;;;;;;;29.00;49.36;100681.91;5033112;28;20029;-73
2022/08/16 09:02:32;;;;;;;24.20;17.17;;;;;;;29.11;48.47;100685.84;5031801;28;20037;-73
2022/08/16 09:04:57;;;;;;;21.17;16.27;;;;;;;28.85;47.94;100682.38;5033739;28;20338;-73
2022/08/16 09:07:22;;;;;;;19.85;16.13;;;;;;;29.26;48.07;100689.13;5036067;28;20115;-73
2022/08/16 09:09:48;;;;;;;23.85;16.80;;;;;;;28.94;48.53;100683.16;5037207;28;20386;-73
2022/08/16 09:12:14;;;;;;;22.15;16.77;;;;;;;29.21;47.22;100687.44;5037251;28;20025;-72
2022/08/16 09:14:39;;;;;;;22.98;17.35;;;;;;;29.16;47.97;100690.25;5037143;28;20045;-73
2022/08/16 09:17:05;;;;;;;23.08;15.35;;;;;;;29.21;47.38;100690.09;5037163;28;20017;-73
2022/08/16 09:19:35;;;;;;;20.75;16.08;;;;;;;29.07;47.72;100697.47;5036964;28;20449;-73
2022/08/16 09:22:02;;;;;;;21.05;15.77;;;;;;;29.91;46.65;100701.38;5036957;28;20075;-74
2022/08/16 09:24:27;;;;;;;22.38;17.42;;;;;;;30.09;45.77;100707.41;5037098;28;20032;-74
2022/08/16 09:26:52;;;;;;;24.33;14.88;;;;;;;29.37;46.90;100714.31;5036874;28;20026;-74
2022/08/16 09:29:18;;;;;;;21.80;16.33;;;;;;;29.83;45.35;100710.19;5036883;28;20022;-74
2022/08/16 09:31:43;;;;;;;24.00;15.02;;;;;;;29.89;46.11;100711.56;5036869;28;20350;-74
2022/08/16 09:34:09;;;;;;;18.03;13.43;;;;;;;30.25;45.26;100716.47;5035904;28;20393;-73
2022/08/16 09:36:34;;;;;;;20.73;15.07;;;;;;;30.00;45.03;100710.13;5036731;28;20275;-73
2022/08/16 09:39:02;;;;;;;19.23;14.40;;;;;;;30.61;45.07;100709.81;5035475;28;20472;-74
2022/08/16 09:41:27;;;;;;;21.50;15.20;;;;;;;30.60;45.71;100713.59;5036696;28;20708;-73
2022/08/16 09:43:52;;;;;;;23.13;17.00;;;;;;;29.73;47.52;100716.66;5038775;28;20052;-82
2022/08/16 09:46:18;;;;;;;22.08;16.42;;;;;;;29.48;47.98;100717.44;5037610;28;20108;-81
2022/08/16 09:48:43;;;;;;;19.95;15.27;;;;;;;29.68;46.73;100720.25;5039050;28;20040;-81
2022/08/16 09:51:10;;;;;;;25.02;16.08;;;;;;;30.19;46.38;100716.97;5038960;28;20045;-82
2022/08/16 09:53:36;;;;;;;25.92;16.38;;;;;;;29.45;48.18;100724.97;5038980;28;20025;-81
2022/08/16 09:56:06;;;;;;;19.92;15.02;;;;;;;30.22;46.32;100729.66;5038123;28;20029;-81
2022/08/16 09:58:32;;;;;;;25.00;15.32;;;;;;;30.32;46.45;100731.94;5037497;28;20064;-80
2022/08/16 10:00:57;;;;;;;25.23;17.30;;;;;;;29.94;46.96;100731.94;5037738;28;20037;-82
2022/08/16 10:03:23;;;;;;;27.58;17.60;;;;;;;29.41;47.96;100740.00;5037033;28;20048;-81
2022/08/16 10:05:49;;;;;;;26.27;19.48;;;;;;;28.80;50.12;100749.81;5038444;28;20094;-81
2022/08/16 10:08:15;;;;;;;24.50;17.25;;;;;;;30.16;47.29;100725.59;5037321;28;20030;-81
2022/08/16 10:13:10;;;;;;;21.23;17.08;;;;;;;30.54;46.69;100723.69;5038261;28;20026;-81
2022/08/16 10:13:28;;;;;;;22.98;16.65;;;;;;;30.58;46.50;100726.47;5039213;28;20049;-81
2022/08/16 10:15:58;;;;;;;23.88;17.73;;;;;;;31.03;45.79;100729.31;5039668;28;20025;-81
2022/08/16 10:18:28;;;;;;;25.98;18.83;;;;;;;30.16;46.62;100731.69;5039031;28;20021;-81
2022/08/16 10:20:57;;;;;;;22.15;17.40;;;;;;;31.06;45.74;100727.13;5039320;28;20112;-81
2022/08/16 10:23:23;;;;;;;25.20;18.58;;;;;;;30.65;45.94;100725.97;5038324;28;20097;-82
2022/08/16 10:25:48;;;;;;;23.50;17.90;;;;;;;31.02;45.36;100725.13;5037975;28;20026;-82
2022/08/16 10:28:14;;;;;;;24.10;16.55;;;;;;;30.74;46.42;100726.69;5038059;28;20021;-80
2022/08/16 10:30:42;;;;;;;23.13;18.08;;;;;;;31.24;44.33;100725.84;5038054;28;20028;-81
2022/08/16 10:33:09;;;;;;;21.23;16.15;;;;;;;31.06;45.51;100727.91;5037023;28;20440;-81
2022/08/16 10:35:34;;;;;;;22.15;15.98;;;;;;;31.28;44.90;100726.00;5038009;28;20036;-82
2022/08/16 10:38:00;;;;;;;26.95;17.63;;;;;;;30.48;46.67;100724.97;5036415;28;20065;-80
2022/08/16 10:40:25;;;;;;;24.67;17.90;;;;;;;30.61;45.52;100722.38;5036298;28;20120;-81
2022/08/16 10:42:50;;;;;;;25.92;19.92;;;;;;;29.85;48.07;100715.97;5037346;28;20065;-81
2022/08/16 10:45:17;;;;;;;24.03;17.00;;;;;;;30.66;46.51;100725.66;5036020;28;20489;-80
2022/08/16 10:47:42;;;;;;;21.00;15.73;;;;;;;31.68;44.57;100731.59;5036649;28;20277;-80
2022/08/16 10:50:08;;;;;;;22.83;15.05;;;;;;;32.53;42.62;100730.88;5036869;28;20075;-81
2022/08/16 10:52:33;;;;;;;26.38;19.20;;;;;;;31.54;44.49;100723.88;5036096;28;20028;-81
2022/08/16 10:54:59;;;;;;;25.67;16.48;;;;;;;31.52;45.11;100726.09;5037644;28;20469;-81
2022/08/16 10:57:26;;;;;;;28.48;17.33;;;;;;;30.27;46.51;100719.59;5037132;28;20416;-81
2022/08/16 10:59:52;;;;;;;22.92;18.05;;;;;;;29.60;48.63;100726.34;5036121;28;20487;-80
2022/08/16 11:02:18;;;;;;;27.58;18.92;;;;;;;29.84;47.63;100741.84;5037770;28;20025;-81
2022/08/16 11:04:44;;;;;;;24.95;19.20;;;;;;;30.29;46.61;100735.25;5037222;28;20032;-81